Home > Products > Valid Products > MTR

000
SAUS45 KTWC 271353
MTRSAD
METAR KSAD 271351Z AUTO 14007KT 10SM OVC090 09/02 A3027 RMK AO2
SLP233 T00940022





000
SAUS45 KTWC 271253
MTRSAD
METAR KSAD 271251Z AUTO 17004KT 10SM BKN100 09/03 A3026 RMK AO2
SLP227 T00940028





000
SAUS45 KTWC 271152
MTRSAD
METAR KSAD 271151Z AUTO 11006KT 10SM BKN095 09/03 A3025 RMK AO2
SLP223 60000 T00890028 10133 20089 51001





000
SAUS45 KTWC 271052
MTRSAD
METAR KSAD 271051Z AUTO 10008KT 10SM CLR 10/02 A3025 RMK AO2 SLP221
T01000022





000
SAUS45 KTWC 270952
MTRSAD
METAR KSAD 270951Z AUTO 10008KT 10SM OVC100 13/02 A3026 RMK AO2
SLP221 T01280017





000
SAUS45 KTWC 270952
MTRSAD
METAR KSAD 270951Z AUTO 10008KT 10SM OVC100 13/02 A3026 RMK AO2
SLP221 T01280017





000
SAUS45 KTWC 270853
MTRSAD
METAR KSAD 270851Z AUTO 10010KT 10SM OVC110 12/03 A3025 RMK AO2
RAB10E34 SLP219 P0000 60000 T01220033 58002





000
SAUS45 KTWC 270752
MTRSAD
METAR KSAD 270751Z AUTO 09010KT 10SM BKN085 OVC120 13/02 A3026 RMK
AO2 SLP220 T01330017





000
SAUS45 KTWC 270652
MTRSAD
METAR KSAD 270651Z AUTO 09005KT 10SM FEW070 OVC095 12/02 A3027 RMK
AO2 RAE00 SLP224 P0000 T01170017 401830072





000
SAUS45 KTWC 270552
MTRSAD
METAR KSAD 270551Z AUTO 12005KT 10SM -RA FEW055 OVC075 12/02 A3026
RMK AO2 RAB26 SLP222 P0000 60000 T01170022 10172 20117 53019





000
SAUS45 KTWC 270452
MTRSAD
METAR KSAD 270451Z AUTO 11005KT 10SM SCT085 13/M03 A3023 RMK AO2
SLP217 T01281033





000
SAUS45 KTWC 270353
MTRSAD
METAR KSAD 270351Z AUTO 16008KT 10SM CLR 13/M03 A3021 RMK AO2 SLP212
T01281033





000
SAUS45 KTWC 270253
MTRSAD
METAR KSAD 270251Z AUTO 13007KT 10SM CLR 15/M03 A3019 RMK AO2 SLP206
T01501033 53007





000
SAUS45 KTWC 270152
MTRSAD
METAR KSAD 270151Z AUTO 12005KT 10SM CLR 14/M03 A3019 RMK AO2 SLP204
T01391033





000
SAUS45 KTWC 270052
MTRSAD
METAR KSAD 270051Z AUTO 16005KT 10SM CLR 15/M03 A3017 RMK AO2 SLP197
T01501028





000
SAUS45 KTWC 262353
MTRSAD
METAR KSAD 262351Z AUTO 17005KT 10SM CLR 17/M04 A3017 RMK AO2 SLP195
T01721039 10183 20150 56009





000
SAUS45 KTWC 262252
MTRSAD
METAR KSAD 262251Z AUTO 15006KT 10SM CLR 18/M04 A3017 RMK AO2 SLP195
T01781044





000
SAUS45 KTWC 262152
MTRSAD
METAR KSAD 262151Z AUTO 17008KT 10SM CLR 17/M04 A3019 RMK AO2 SLP201
T01671044





000
SAUS45 KTWC 262053
MTRSAD
METAR KSAD 262051Z AUTO 17010KT 10SM CLR 17/M04 A3020 RMK AO2 SLP204
T01671044 56030





000
SAUS45 KTWC 261953
MTRSAD
METAR KSAD 261951Z AUTO 16008KT 10SM CLR 17/M04 A3022 RMK AO2 SLP213
T01671044





000
SAUS45 KTWC 261852
MTRSAD
METAR KSAD 261851Z AUTO 14009KT 10SM CLR 17/M04 A3026 RMK AO2 SLP225
T01671044





000
SAUS45 KTWC 261752
MTRSAD
METAR KSAD 261751Z AUTO 12012KT 10SM CLR 16/M05 A3030 RMK AO2 SLP240
T01561050 10156 20072 51014





000
SAUS45 KTWC 261652
MTRSAD
METAR KSAD 261651Z AUTO 12008KT 10SM CLR 12/M04 A3029 RMK AO2 SLP242
T01171044





000
SAUS45 KTWC 261552
MTRSAD
METAR KSAD 261551Z AUTO 11008KT 10SM CLR 09/M04 A3029 RMK AO2 SLP243
T00941039





000
SAUS45 KTWC 261452
MTRSAD
METAR KSAD 261451Z AUTO 13011KT 10SM CLR 08/M05 A3025 RMK AO2 SLP233
T00781050 52011





000
SAUS45 KTWC 261352
MTRSAD
METAR KSAD 261351Z AUTO 12012KT 10SM CLR 08/M05 A3024 RMK AO2 SLP226
T00831050





000
SAUS45 KTWC 261252
MTRSAD
METAR KSAD 261251Z AUTO 11016KT 10SM CLR 08/M06 A3023 RMK AO2 SLP220
T00831056





000
SAUS45 KTWC 261153
MTRSAD
METAR KSAD 261151Z AUTO 12013KT 10SM CLR 08/M05 A3022 RMK AO2 SLP211
T00831050 10100 20083 57006





000
SAUS45 KTWC 261053
MTRSAD
METAR KSAD 261051Z AUTO 13009KT 10SM CLR 09/M05 A3022 RMK AO2 SLP210
T00891050





000
SAUS45 KTWC 260952
MTRSAD
METAR KSAD 260951Z AUTO 10011KT 10SM CLR 10/M05 A3024 RMK AO2 SLP215
T01001050





000
SAUS45 KTWC 260852
MTRSAD
METAR KSAD 260851Z AUTO 12011KT 10SM CLR 09/M04 A3024 RMK AO2 SLP217
T00941044 51003





000
SAUS45 KTWC 260752
MTRSAD
METAR KSAD 260751Z AUTO 16006KT 10SM CLR 09/M04 A3023 RMK AO2 SLP219
T00891039





000
SAUS45 KTWC 260652
MTRSAD
METAR KSAD 260651Z AUTO 11008KT 10SM CLR 10/M04 A3023 RMK AO2 SLP220
T01001039 401830006





000
SAUS45 KTWC 260553
MTRSAD
METAR KSAD 260551Z AUTO 10008KT 10SM CLR 09/M04 A3023 RMK AO2 SLP220
T00941039 10178 20083 53006





000
SAUS45 KTWC 260452
MTRSAD
METAR KSAD 260451Z AUTO 10009KT 10SM CLR 10/M04 A3022 RMK AO2 SLP218
T01001044





000
SAUS45 KTWC 260352
MTRSAD
METAR KSAD 260351Z AUTO 10009KT 10SM CLR 09/M06 A3021 RMK AO2 SLP220
T00941056





000
SAUS45 KTWC 260252
MTRSAD
METAR KSAD 260251Z AUTO 09008KT 10SM CLR 10/M06 A3021 RMK AO2 SLP224
T01001056 53019





000
SAUS45 KTWC 260153
MTRSAD
METAR KSAD 260151Z AUTO 07005KT 10SM CLR 10/M06 A3017 RMK AO2 SLP209
T01001056





000
SAUS45 KTWC 260153
MTRSAD
METAR KSAD 260151Z AUTO 07005KT 10SM CLR 10/M06 A3017 RMK AO2 SLP209
T01001056





000
SAUS45 KTWC 260052
MTRSAD
METAR KSAD 260051Z AUTO 15003KT 10SM CLR 14/M07 A3016 RMK AO2 SLP200
T01391067





000
SAUS45 KTWC 252353
MTRSAD
METAR KSAD 252351Z AUTO 16005KT 10SM CLR 17/M07 A3015 RMK AO2 SLP190
T01721072 10183 20117 55005





000
SAUS45 KTWC 252252
MTRSAD
METAR KSAD 252251Z AUTO VRB03KT 10SM CLR 18/M08 A3013 RMK AO2 SLP187
T01781083





000
SAUS45 KTWC 252152
MTRSAD
METAR KSAD 252151Z AUTO VRB06KT 10SM CLR 17/M09 A3015 RMK AO2 SLP190
T01721089





000
SAUS45 KTWC 252152
MTRSAD
METAR KSAD 252151Z AUTO VRB06KT 10SM CLR 17/M09 A3015 RMK AO2 SLP190
T01721089





000
SAUS45 KTWC 252053
MTRSAD
METAR KSAD 252051Z AUTO 14009KT 10SM CLR 17/M08 A3016 RMK AO2 SLP196
T01671083 58025





000
SAUS45 KTWC 251953
MTRSAD
METAR KSAD 251951Z AUTO 13008KT 10SM CLR 15/M08 A3020 RMK AO2 SLP211
T01501078





000
SAUS45 KTWC 251853
MTRSAD
METAR KSAD 251851Z AUTO 16007KT 10SM CLR 12/M07 A3023 RMK AO2 SLP227
T01171067





000
SAUS45 KTWC 251752
MTRSAD
METAR KSAD 251751Z AUTO 11008KT 10SM CLR 12/M07 A3024 RMK AO2 SLP229
T01171067 10117 20006 51006





000
SAUS45 KTWC 251652
MTRSAD
METAR KSAD 251651Z AUTO 14007KT 10SM CLR 09/M07 A3024 RMK AO2 SLP230
T00941067





000
SAUS45 KTWC 251552
MTRSAD
METAR KSAD 251551Z AUTO 12006KT 10SM CLR 06/M07 A3024 RMK AO2 SLP230
T00561067





000
SAUS45 KTWC 251453
MTRSAD
METAR KSAD 251451Z AUTO 11003KT 10SM CLR 01/M07 A3022 RMK AO2 SLP230
T00061067 53014





000
SAUS45 KTWC 251353
MTRSAD
METAR KSAD 251351Z AUTO 10004KT 10SM CLR 02/M07 A3021 RMK AO2 SLP222
T00171072





000
SAUS45 KTWC 251252
MTRSAD
METAR KSAD 251251Z AUTO 14006KT 10SM CLR 03/M08 A3019 RMK AO2 SLP211
T00331078





000
SAUS45 KTWC 251153
MTRSAD
METAR KSAD 251151Z AUTO 13009KT 10SM CLR 04/M08 A3018 RMK AO2 SLP205
T00441078 10067 20028 55006





000
SAUS45 KTWC 251052
MTRSAD
METAR KSAD 251051Z AUTO 11005KT 10SM CLR 03/M08 A3017 RMK AO2 SLP204
T00281078





000
SAUS45 KTWC 250952
MTRSAD
METAR KSAD 250951Z AUTO 12010KT 10SM CLR 05/M08 A3019 RMK AO2 SLP207
T00501083





000
SAUS45 KTWC 250952
MTRSAD
METAR KSAD 250951Z AUTO 12010KT 10SM CLR 05/M08 A3019 RMK AO2 SLP207
T00501083





000
SAUS45 KTWC 250852
MTRSAD
METAR KSAD 250851Z AUTO 10009KT 10SM CLR 06/M08 A3020 RMK AO2 SLP211
T00561078 50002





000
SAUS45 KTWC 250752
MTRSAD
METAR KSAD 250751Z AUTO 12009KT 10SM CLR 06/M09 A3020 RMK AO2 SLP213
T00611094





000
SAUS45 KTWC 250652
MTRSAD
METAR KSAD 250651Z AUTO 11007KT 10SM CLR 04/M08 A3020 RMK AO2 SLP217
T00441083 401670011





000
SAUS45 KTWC 250553
MTRSAD
METAR KSAD 250551Z AUTO 17010KT 10SM CLR 06/M09 A3019 RMK AO2 SLP216
T00561094 10150 20056 51013





000
SAUS45 KTWC 250452
MTRSAD
METAR KSAD 250451Z AUTO 12005KT 10SM CLR 06/M10 A3019 RMK AO2 SLP215
T00611100





000
SAUS45 KTWC 250352
MTRSAD
METAR KSAD 250351Z AUTO 13008KT 10SM CLR 09/M10 A3017 RMK AO2 SLP207
T00941100





000
SAUS45 KTWC 250253
MTRSAD
METAR KSAD 250251Z AUTO 11007KT 10SM CLR 10/M11 A3015 RMK AO2 SLP206
T01001106 53006





000
SAUS45 KTWC 250153
MTRSAD
METAR KSAD 250151Z AUTO 11007KT 10SM CLR 11/M11 A3014 RMK AO2 SLP199
T01111111





000
SAUS45 KTWC 250153
MTRSAD
METAR KSAD 250151Z AUTO 11007KT 10SM CLR 11/M11 A3014 RMK AO2 SLP199
T01111111





000
SAUS45 KTWC 250052
MTRSAD
METAR KSAD 250051Z AUTO 14004KT 10SM CLR 13/M11 A3012 RMK AO2 SLP191
T01281106





000
SAUS45 KTWC 242352
MTRSAD
METAR KSAD 242351Z AUTO 21008KT 10SM CLR 15/M11 A3013 RMK AO2 SLP192
T01501111 10167 20083 58016





000
SAUS45 KTWC 242252
MTRSAD
METAR KSAD 242251Z AUTO 19008KT 10SM CLR 16/M11 A3016 RMK AO2 SLP198
T01611111





000
SAUS45 KTWC 242152
MTRSAD
METAR KSAD 242151Z AUTO 16007KT 140V200 10SM CLR 16/M10 A3017 RMK
AO2 SLP201 T01561100





000
SAUS45 KTWC 242052
MTRSAD
METAR KSAD 242051Z AUTO 00000KT 10SM CLR 14/M08 A3018 RMK AO2 SLP209
T01441083 57039





000
SAUS45 KTWC 241952
MTRSAD
METAR KSAD 241951Z AUTO 16007KT 10SM CLR 12/M06 A3022 RMK AO2 SLP223
T01221061





000
SAUS45 KTWC 241852
MTRSAD
METAR KSAD 241851Z AUTO 17009KT 10SM CLR 10/M06 A3027 RMK AO2 SLP243
T01001056





000
SAUS45 KTWC 241752
MTRSAD
METAR KSAD 241751Z AUTO 15011KT 10SM CLR 08/M06 A3031 RMK AO2 SLP258
T00831056 10089 20011 50001





000
SAUS45 KTWC 241652
MTRSAD
METAR KSAD 241651Z AUTO 10010KT 10SM CLR 08/M06 A3032 RMK AO2 SLP260
T00781056





000
SAUS45 KTWC 241552
MTRSAD
METAR KSAD 241551Z AUTO 11011KT 10SM CLR 04/M06 A3031 RMK AO2 SLP260
T00391056





000
SAUS45 KTWC 241552
MTRSAD
METAR KSAD 241551Z AUTO 11011KT 10SM CLR 04/M06 A3031 RMK AO2 SLP260
T00391056





000
SAUS45 KTWC 241452
MTRSAD
METAR KSAD 241451Z AUTO 13008KT 10SM CLR 01/M06 A3031 RMK AO2 SLP262
T00111061 53009





    US Dept of Commerce
    National Oceanic and Atmospheric Administration
    National Weather Service
    1325 East West Highway
    Silver Spring, MD 20910
    Page Author: NWS Internet Services Team
Disclaimer
Information Quality
Credits
Glossary
Privacy Policy
Freedom of Information Act (FOIA)
About Us
Career Opportunities